Terminal Aerodrome Forecast
Issued by NWS

Home | Current Version | Previous Version | Text Only | Print | Product List | Glossary On
Versions: 1 2 3 4 5 6 7 8 9 10 11 12 13 14 15 16 17 18 19 20 21 22 23 24 25 26
000
FTUS41 KOKX 020200 AAA
TAFGON
TAF AMD
KGON 020234Z 0203/0224 22004KT 6SM BR FEW015 SCT030 BKN150
     FM020600 VRB03KT 4SM BR SCT008 BKN015 BKN150
      TEMPO 0208/0211 1SM BR BKN008
     FM021400 23005KT 6SM HZ SCT015 BKN025
     FM021600 21008KT P6SM FEW025 SCT050=

USA.gov is the U.S. government's official web portal to all federal, state and local government web resources and services.